sensor_id;sensor_type;location;lat;lon;timestamp;P1;durP1;ratioP1;P2;durP2;ratioP2
42912;SDS011;50720;54.324;18.558;2023-06-24T00:00:36;17.52;;;10.68;;
42912;SDS011;50720;54.324;18.558;2023-06-24T00:03:26;20.15;;;12.57;;
42912;SDS011;50720;54.324;18.558;2023-06-24T00:05:55;20.45;;;11.93;;
42912;SDS011;50720;54.324;18.558;2023-06-24T00:08:32;17.15;;;11.27;;
42912;SDS011;50720;54.324;18.558;2023-06-24T00:11:03;13.20;;;11.07;;
42912;SDS011;50720;54.324;18.558;2023-06-24T00:13:33;13.83;;;10.60;;
42912;SDS011;50720;54.324;18.558;2023-06-24T00:16:02;14.43;;;10.02;;
42912;SDS011;50720;54.324;18.558;2023-06-24T00:18:34;17.98;;;10.48;;
42912;SDS011;50720;54.324;18.558;2023-06-24T00:21:03;11.77;;;9.53;;
42912;SDS011;50720;54.324;18.558;2023-06-24T00:23:35;14.35;;;9.35;;
42912;SDS011;50720;54.324;18.558;2023-06-24T00:26:04;17.42;;;10.30;;
42912;SDS011;50720;54.324;18.558;2023-06-24T00:28:34;17.05;;;10.65;;
42912;SDS011;50720;54.324;18.558;2023-06-24T00:31:04;16.20;;;9.55;;
42912;SDS011;50720;54.324;18.558;2023-06-24T00:33:34;16.17;;;9.85;;
42912;SDS011;50720;54.324;18.558;2023-06-24T00:36:03;13.88;;;9.25;;
42912;SDS011;50720;54.324;18.558;2023-06-24T00:38:37;17.02;;;9.48;;
42912;SDS011;50720;54.324;18.558;2023-06-24T00:41:07;13.23;;;8.70;;
42912;SDS011;50720;54.324;18.558;2023-06-24T00:43:36;14.52;;;9.45;;
42912;SDS011;50720;54.324;18.558;2023-06-24T00:46:06;12.30;;;8.20;;
42912;SDS011;50720;54.324;18.558;2023-06-24T00:48:36;11.68;;;8.35;;
42912;SDS011;50720;54.324;18.558;2023-06-24T00:51:05;11.00;;;8.05;;
42912;SDS011;50720;54.324;18.558;2023-06-24T00:53:37;12.70;;;8.18;;
42912;SDS011;50720;54.324;18.558;2023-06-24T00:56:06;10.98;;;8.00;;
42912;SDS011;50720;54.324;18.558;2023-06-24T00:58:36;11.47;;;8.17;;
42912;SDS011;50720;54.324;18.558;2023-06-24T01:01:06;12.90;;;9.13;;
42912;SDS011;50720;54.324;18.558;2023-06-24T01:03:37;9.37;;;7.20;;
42912;SDS011;50720;54.324;18.558;2023-06-24T01:08:39;14.73;;;6.95;;
42912;SDS011;50720;54.324;18.558;2023-06-24T01:11:08;12.45;;;7.47;;
42912;SDS011;50720;54.324;18.558;2023-06-24T01:13:38;12.77;;;7.10;;
42912;SDS011;50720;54.324;18.558;2023-06-24T01:16:09;12.05;;;7.20;;
42912;SDS011;50720;54.324;18.558;2023-06-24T01:18:45;10.52;;;7.22;;
42912;SDS011;50720;54.324;18.558;2023-06-24T01:21:18;10.95;;;6.70;;
42912;SDS011;50720;54.324;18.558;2023-06-24T01:24:20;9.55;;;6.20;;
42912;SDS011;50720;54.324;18.558;2023-06-24T01:27:12;10.68;;;6.53;;
42912;SDS011;50720;54.324;18.558;2023-06-24T01:29:58;11.45;;;7.10;;
42912;SDS011;50720;54.324;18.558;2023-06-24T01:32:50;8.77;;;6.53;;
42912;SDS011;50720;54.324;18.558;2023-06-24T01:35:24;10.73;;;7.53;;
42912;SDS011;50720;54.324;18.558;2023-06-24T01:38:01;9.65;;;7.00;;
42912;SDS011;50720;54.324;18.558;2023-06-24T01:40:37;11.82;;;6.40;;
42912;SDS011;50720;54.324;18.558;2023-06-24T01:43:10;10.05;;;6.07;;
42912;SDS011;50720;54.324;18.558;2023-06-24T01:45:42;9.43;;;6.20;;
42912;SDS011;50720;54.324;18.558;2023-06-24T01:48:18;9.88;;;6.13;;
42912;SDS011;50720;54.324;18.558;2023-06-24T01:50:54;12.68;;;6.72;;
42912;SDS011;50720;54.324;18.558;2023-06-24T01:53:27;12.60;;;7.28;;
42912;SDS011;50720;54.324;18.558;2023-06-24T01:56:01;9.35;;;6.55;;
42912;SDS011;50720;54.324;18.558;2023-06-24T01:58:32;7.28;;;5.63;;
42912;SDS011;50720;54.324;18.558;2023-06-24T02:01:04;8.73;;;5.68;;
42912;SDS011;50720;54.324;18.558;2023-06-24T02:03:36;12.05;;;5.68;;
42912;SDS011;50720;54.324;18.558;2023-06-24T02:06:09;8.93;;;6.00;;
42912;SDS011;50720;54.324;18.558;2023-06-24T02:08:39;8.38;;;6.65;;
42912;SDS011;50720;54.324;18.558;2023-06-24T02:11:11;12.63;;;6.45;;
42912;SDS011;50720;54.324;18.558;2023-06-24T02:13:42;7.53;;;5.63;;
42912;SDS011;50720;54.324;18.558;2023-06-24T02:18:43;9.50;;;6.00;;
42912;SDS011;50720;54.324;18.558;2023-06-24T02:21:17;7.43;;;5.93;;
42912;SDS011;50720;54.324;18.558;2023-06-24T02:23:47;11.82;;;5.20;;
42912;SDS011;50720;54.324;18.558;2023-06-24T02:28:46;9.98;;;5.30;;
42912;SDS011;50720;54.324;18.558;2023-06-24T02:31:18;8.88;;;6.03;;
42912;SDS011;50720;54.324;18.558;2023-06-24T02:33:50;8.23;;;5.35;;
42912;SDS011;50720;54.324;18.558;2023-06-24T02:36:20;11.15;;;6.22;;
42912;SDS011;50720;54.324;18.558;2023-06-24T02:38:51;12.32;;;5.88;;
42912;SDS011;50720;54.324;18.558;2023-06-24T02:41:21;8.50;;;5.47;;
42912;SDS011;50720;54.324;18.558;2023-06-24T02:43:50;14.20;;;6.00;;
42912;SDS011;50720;54.324;18.558;2023-06-24T02:46:20;7.90;;;5.45;;
42912;SDS011;50720;54.324;18.558;2023-06-24T02:48:52;8.13;;;5.68;;
42912;SDS011;50720;54.324;18.558;2023-06-24T02:51:22;10.07;;;5.57;;
42912;SDS011;50720;54.324;18.558;2023-06-24T02:53:52;8.88;;;5.20;;
42912;SDS011;50720;54.324;18.558;2023-06-24T02:56:23;6.28;;;5.68;;
42912;SDS011;50720;54.324;18.558;2023-06-24T02:58:55;10.77;;;5.97;;
42912;SDS011;50720;54.324;18.558;2023-06-24T03:01:25;13.13;;;6.25;;
42912;SDS011;50720;54.324;18.558;2023-06-24T03:03:56;12.77;;;5.20;;
42912;SDS011;50720;54.324;18.558;2023-06-24T03:06:26;9.25;;;6.18;;
42912;SDS011;50720;54.324;18.558;2023-06-24T03:08:56;8.43;;;5.80;;
42912;SDS011;50720;54.324;18.558;2023-06-24T03:11:27;8.40;;;5.50;;
42912;SDS011;50720;54.324;18.558;2023-06-24T03:13:56;7.63;;;5.40;;
42912;SDS011;50720;54.324;18.558;2023-06-24T03:16:26;7.88;;;5.50;;
42912;SDS011;50720;54.324;18.558;2023-06-24T03:18:57;9.20;;;6.65;;
42912;SDS011;50720;54.324;18.558;2023-06-24T03:21:27;9.32;;;5.50;;
42912;SDS011;50720;54.324;18.558;2023-06-24T03:23:56;9.13;;;5.65;;
42912;SDS011;50720;54.324;18.558;2023-06-24T03:26:34;7.13;;;5.07;;
42912;SDS011;50720;54.324;18.558;2023-06-24T03:29:04;7.70;;;6.00;;
42912;SDS011;50720;54.324;18.558;2023-06-24T03:31:34;8.70;;;5.78;;
42912;SDS011;50720;54.324;18.558;2023-06-24T03:34:05;7.55;;;5.18;;
42912;SDS011;50720;54.324;18.558;2023-06-24T03:36:35;8.70;;;6.10;;
42912;SDS011;50720;54.324;18.558;2023-06-24T03:39:06;6.30;;;4.65;;
42912;SDS011;50720;54.324;18.558;2023-06-24T03:41:36;9.63;;;6.10;;
42912;SDS011;50720;54.324;18.558;2023-06-24T03:44:06;10.20;;;5.22;;
42912;SDS011;50720;54.324;18.558;2023-06-24T03:46:35;6.72;;;5.07;;
42912;SDS011;50720;54.324;18.558;2023-06-24T03:49:06;6.68;;;4.65;;
42912;SDS011;50720;54.324;18.558;2023-06-24T03:51:36;7.32;;;4.60;;
42912;SDS011;50720;54.324;18.558;2023-06-24T03:54:05;6.07;;;4.55;;
42912;SDS011;50720;54.324;18.558;2023-06-24T03:56:35;10.13;;;5.40;;
42912;SDS011;50720;54.324;18.558;2023-06-24T03:59:04;13.15;;;4.38;;
42912;SDS011;50720;54.324;18.558;2023-06-24T04:01:35;5.82;;;4.55;;
42912;SDS011;50720;54.324;18.558;2023-06-24T04:04:06;5.80;;;4.57;;
42912;SDS011;50720;54.324;18.558;2023-06-24T04:06:36;9.07;;;5.00;;
42912;SDS011;50720;54.324;18.558;2023-06-24T04:09:05;9.55;;;5.00;;
42912;SDS011;50720;54.324;18.558;2023-06-24T04:11:37;9.18;;;5.47;;
42912;SDS011;50720;54.324;18.558;2023-06-24T04:14:06;12.68;;;5.07;;
42912;SDS011;50720;54.324;18.558;2023-06-24T04:16:36;6.03;;;4.20;;
42912;SDS011;50720;54.324;18.558;2023-06-24T04:21:39;6.20;;;5.38;;
42912;SDS011;50720;54.324;18.558;2023-06-24T04:24:08;5.18;;;3.90;;
42912;SDS011;50720;54.324;18.558;2023-06-24T04:26:38;6.05;;;4.38;;
42912;SDS011;50720;54.324;18.558;2023-06-24T04:29:07;8.43;;;4.70;;
42912;SDS011;50720;54.324;18.558;2023-06-24T04:31:38;8.65;;;5.28;;
42912;SDS011;50720;54.324;18.558;2023-06-24T04:34:08;5.43;;;3.88;;
42912;SDS011;50720;54.324;18.558;2023-06-24T04:36:38;10.98;;;4.70;;
42912;SDS011;50720;54.324;18.558;2023-06-24T04:39:08;6.07;;;3.65;;
42912;SDS011;50720;54.324;18.558;2023-06-24T04:41:38;9.38;;;4.72;;
42912;SDS011;50720;54.324;18.558;2023-06-24T04:44:07;7.53;;;4.05;;
42912;SDS011;50720;54.324;18.558;2023-06-24T04:46:37;7.63;;;4.53;;
42912;SDS011;50720;54.324;18.558;2023-06-24T04:49:09;8.90;;;5.10;;
42912;SDS011;50720;54.324;18.558;2023-06-24T04:51:38;8.32;;;4.53;;
42912;SDS011;50720;54.324;18.558;2023-06-24T04:54:10;5.57;;;3.72;;
42912;SDS011;50720;54.324;18.558;2023-06-24T04:56:41;9.35;;;4.70;;
42912;SDS011;50720;54.324;18.558;2023-06-24T04:59:15;6.15;;;4.07;;
42912;SDS011;50720;54.324;18.558;2023-06-24T05:01:45;8.65;;;3.90;;
42912;SDS011;50720;54.324;18.558;2023-06-24T05:04:16;8.95;;;4.07;;
42912;SDS011;50720;54.324;18.558;2023-06-24T05:06:46;9.82;;;4.22;;
42912;SDS011;50720;54.324;18.558;2023-06-24T05:09:15;11.32;;;4.65;;
42912;SDS011;50720;54.324;18.558;2023-06-24T05:11:45;7.15;;;4.35;;
42912;SDS011;50720;54.324;18.558;2023-06-24T05:14:15;8.95;;;4.20;;
42912;SDS011;50720;54.324;18.558;2023-06-24T05:16:44;28.95;;;6.32;;
42912;SDS011;50720;54.324;18.558;2023-06-24T05:19:13;6.93;;;4.55;;
42912;SDS011;50720;54.324;18.558;2023-06-24T05:21:45;7.07;;;4.40;;
42912;SDS011;50720;54.324;18.558;2023-06-24T05:24:14;7.10;;;4.00;;
42912;SDS011;50720;54.324;18.558;2023-06-24T05:26:47;6.18;;;4.72;;
42912;SDS011;50720;54.324;18.558;2023-06-24T05:29:18;6.90;;;4.47;;
42912;SDS011;50720;54.324;18.558;2023-06-24T05:31:48;7.28;;;4.03;;
42912;SDS011;50720;54.324;18.558;2023-06-24T05:34:19;6.07;;;4.22;;
42912;SDS011;50720;54.324;18.558;2023-06-24T05:36:49;9.43;;;5.03;;
42912;SDS011;50720;54.324;18.558;2023-06-24T05:39:18;5.43;;;4.25;;
42912;SDS011;50720;54.324;18.558;2023-06-24T05:41:49;7.22;;;4.90;;
42912;SDS011;50720;54.324;18.558;2023-06-24T05:44:19;8.57;;;4.82;;
42912;SDS011;50720;54.324;18.558;2023-06-24T05:46:50;7.90;;;5.25;;
42912;SDS011;50720;54.324;18.558;2023-06-24T05:49:21;8.35;;;4.57;;
42912;SDS011;50720;54.324;18.558;2023-06-24T05:51:52;10.43;;;5.72;;
42912;SDS011;50720;54.324;18.558;2023-06-24T05:54:21;7.85;;;4.43;;
42912;SDS011;50720;54.324;18.558;2023-06-24T05:56:51;6.95;;;4.65;;
42912;SDS011;50720;54.324;18.558;2023-06-24T05:59:20;9.25;;;4.53;;
42912;SDS011;50720;54.324;18.558;2023-06-24T06:01:50;7.28;;;4.53;;
42912;SDS011;50720;54.324;18.558;2023-06-24T06:04:21;8.15;;;3.90;;
42912;SDS011;50720;54.324;18.558;2023-06-24T06:06:51;4.75;;;4.25;;
42912;SDS011;50720;54.324;18.558;2023-06-24T06:09:21;5.80;;;4.15;;
42912;SDS011;50720;54.324;18.558;2023-06-24T06:11:51;6.28;;;4.13;;
42912;SDS011;50720;54.324;18.558;2023-06-24T06:14:20;5.10;;;3.83;;
42912;SDS011;50720;54.324;18.558;2023-06-24T06:16:50;12.50;;;4.72;;
42912;SDS011;50720;54.324;18.558;2023-06-24T06:19:21;4.63;;;3.25;;
42912;SDS011;50720;54.324;18.558;2023-06-24T06:21:51;4.47;;;3.55;;
42912;SDS011;50720;54.324;18.558;2023-06-24T06:24:20;7.63;;;4.40;;
42912;SDS011;50720;54.324;18.558;2023-06-24T06:26:50;4.95;;;3.45;;
42912;SDS011;50720;54.324;18.558;2023-06-24T06:29:19;4.25;;;3.53;;
42912;SDS011;50720;54.324;18.558;2023-06-24T06:31:49;6.53;;;3.77;;
42912;SDS011;50720;54.324;18.558;2023-06-24T06:36:50;5.90;;;3.67;;
42912;SDS011;50720;54.324;18.558;2023-06-24T06:39:19;10.98;;;3.53;;
42912;SDS011;50720;54.324;18.558;2023-06-24T06:41:49;6.93;;;4.10;;
42912;SDS011;50720;54.324;18.558;2023-06-24T06:44:19;8.57;;;4.70;;
42912;SDS011;50720;54.324;18.558;2023-06-24T06:46:48;4.38;;;3.97;;
42912;SDS011;50720;54.324;18.558;2023-06-24T06:49:18;6.70;;;3.78;;
42912;SDS011;50720;54.324;18.558;2023-06-24T06:51:49;6.07;;;4.10;;
42912;SDS011;50720;54.324;18.558;2023-06-24T06:54:18;9.73;;;4.18;;
42912;SDS011;50720;54.324;18.558;2023-06-24T06:56:48;6.95;;;4.32;;
42912;SDS011;50720;54.324;18.558;2023-06-24T06:59:17;10.10;;;4.50;;
42912;SDS011;50720;54.324;18.558;2023-06-24T07:01:47;8.83;;;4.03;;
42912;SDS011;50720;54.324;18.558;2023-06-24T07:04:17;4.72;;;4.18;;
42912;SDS011;50720;54.324;18.558;2023-06-24T07:06:46;6.32;;;4.60;;
42912;SDS011;50720;54.324;18.558;2023-06-24T07:09:17;5.82;;;4.20;;
42912;SDS011;50720;54.324;18.558;2023-06-24T07:11:48;7.68;;;4.93;;
42912;SDS011;50720;54.324;18.558;2023-06-24T07:14:20;8.45;;;4.20;;
42912;SDS011;50720;54.324;18.558;2023-06-24T07:16:50;7.30;;;3.90;;
42912;SDS011;50720;54.324;18.558;2023-06-24T07:19:19;8.68;;;4.43;;
42912;SDS011;50720;54.324;18.558;2023-06-24T07:21:51;5.93;;;4.03;;
42912;SDS011;50720;54.324;18.558;2023-06-24T07:24:20;8.80;;;4.50;;
42912;SDS011;50720;54.324;18.558;2023-06-24T07:26:51;6.55;;;3.55;;
42912;SDS011;50720;54.324;18.558;2023-06-24T07:29:20;6.70;;;3.33;;
42912;SDS011;50720;54.324;18.558;2023-06-24T07:31:50;9.05;;;4.72;;
42912;SDS011;50720;54.324;18.558;2023-06-24T07:34:20;6.60;;;4.43;;
42912;SDS011;50720;54.324;18.558;2023-06-24T07:36:51;7.85;;;4.22;;
42912;SDS011;50720;54.324;18.558;2023-06-24T07:39:21;4.93;;;3.63;;
42912;SDS011;50720;54.324;18.558;2023-06-24T07:41:51;4.67;;;3.83;;
42912;SDS011;50720;54.324;18.558;2023-06-24T07:44:20;5.78;;;3.65;;
42912;SDS011;50720;54.324;18.558;2023-06-24T07:46:51;7.78;;;3.42;;
42912;SDS011;50720;54.324;18.558;2023-06-24T07:49:20;8.52;;;4.72;;
42912;SDS011;50720;54.324;18.558;2023-06-24T07:51:52;6.32;;;4.65;;
42912;SDS011;50720;54.324;18.558;2023-06-24T07:54:21;6.03;;;3.95;;
42912;SDS011;50720;54.324;18.558;2023-06-24T07:56:51;10.63;;;4.03;;
42912;SDS011;50720;54.324;18.558;2023-06-24T07:59:20;5.70;;;3.67;;
42912;SDS011;50720;54.324;18.558;2023-06-24T08:01:50;3.78;;;3.15;;
42912;SDS011;50720;54.324;18.558;2023-06-24T08:04:20;7.38;;;3.47;;
42912;SDS011;50720;54.324;18.558;2023-06-24T08:06:52;9.55;;;3.45;;
42912;SDS011;50720;54.324;18.558;2023-06-24T08:09:22;6.78;;;3.60;;
42912;SDS011;50720;54.324;18.558;2023-06-24T08:11:51;4.63;;;3.72;;
42912;SDS011;50720;54.324;18.558;2023-06-24T08:14:22;5.50;;;3.30;;
42912;SDS011;50720;54.324;18.558;2023-06-24T08:16:52;5.47;;;3.10;;
42912;SDS011;50720;54.324;18.558;2023-06-24T08:19:22;5.80;;;3.10;;
42912;SDS011;50720;54.324;18.558;2023-06-24T08:21:54;2.88;;;2.58;;
42912;SDS011;50720;54.324;18.558;2023-06-24T08:24:23;7.22;;;3.13;;
42912;SDS011;50720;54.324;18.558;2023-06-24T08:26:53;7.65;;;4.05;;
42912;SDS011;50720;54.324;18.558;2023-06-24T08:29:22;6.38;;;2.92;;
42912;SDS011;50720;54.324;18.558;2023-06-24T08:31:52;5.38;;;3.38;;
42912;SDS011;50720;54.324;18.558;2023-06-24T08:34:22;6.80;;;3.20;;
42912;SDS011;50720;54.324;18.558;2023-06-24T08:36:55;3.75;;;2.85;;
42912;SDS011;50720;54.324;18.558;2023-06-24T08:39:24;3.75;;;2.70;;
42912;SDS011;50720;54.324;18.558;2023-06-24T08:41:54;3.05;;;2.20;;
42912;SDS011;50720;54.324;18.558;2023-06-24T08:44:24;5.05;;;2.95;;
42912;SDS011;50720;54.324;18.558;2023-06-24T08:46:54;5.25;;;2.70;;
42912;SDS011;50720;54.324;18.558;2023-06-24T08:49:25;9.80;;;3.63;;
42912;SDS011;50720;54.324;18.558;2023-06-24T08:52:02;7.78;;;3.20;;
42912;SDS011;50720;54.324;18.558;2023-06-24T08:54:34;5.30;;;3.35;;
42912;SDS011;50720;54.324;18.558;2023-06-24T08:57:06;3.78;;;3.35;;
42912;SDS011;50720;54.324;18.558;2023-06-24T08:59:41;4.13;;;3.38;;
42912;SDS011;50720;54.324;18.558;2023-06-24T09:02:11;8.02;;;3.38;;
42912;SDS011;50720;54.324;18.558;2023-06-24T09:07:12;4.72;;;3.00;;
42912;SDS011;50720;54.324;18.558;2023-06-24T09:09:42;4.20;;;3.08;;
42912;SDS011;50720;54.324;18.558;2023-06-24T09:12:13;5.10;;;3.10;;
42912;SDS011;50720;54.324;18.558;2023-06-24T09:14:47;9.65;;;5.22;;
42912;SDS011;50720;54.324;18.558;2023-06-24T09:17:17;3.58;;;2.92;;
42912;SDS011;50720;54.324;18.558;2023-06-24T09:19:50;3.75;;;3.10;;
42912;SDS011;50720;54.324;18.558;2023-06-24T09:22:21;5.90;;;3.08;;
42912;SDS011;50720;54.324;18.558;2023-06-24T09:24:51;5.47;;;3.47;;
42912;SDS011;50720;54.324;18.558;2023-06-24T09:27:20;4.15;;;3.10;;
42912;SDS011;50720;54.324;18.558;2023-06-24T09:29:51;5.18;;;3.63;;
42912;SDS011;50720;54.324;18.558;2023-06-24T09:32:20;4.95;;;3.10;;
42912;SDS011;50720;54.324;18.558;2023-06-24T09:34:50;4.23;;;3.80;;
42912;SDS011;50720;54.324;18.558;2023-06-24T09:37:24;7.25;;;3.17;;
42912;SDS011;50720;54.324;18.558;2023-06-24T09:39:58;6.53;;;3.40;;
42912;SDS011;50720;54.324;18.558;2023-06-24T09:42:32;4.82;;;3.25;;
42912;SDS011;50720;54.324;18.558;2023-06-24T09:45:04;3.05;;;2.67;;
42912;SDS011;50720;54.324;18.558;2023-06-24T09:47:34;6.05;;;3.60;;
42912;SDS011;50720;54.324;18.558;2023-06-24T09:50:04;3.95;;;3.00;;
42912;SDS011;50720;54.324;18.558;2023-06-24T09:52:35;5.43;;;3.53;;
42912;SDS011;50720;54.324;18.558;2023-06-24T09:55:06;4.82;;;3.22;;
42912;SDS011;50720;54.324;18.558;2023-06-24T09:57:37;5.53;;;3.92;;
42912;SDS011;50720;54.324;18.558;2023-06-24T10:00:10;6.35;;;3.60;;
42912;SDS011;50720;54.324;18.558;2023-06-24T10:02:42;5.43;;;3.90;;
42912;SDS011;50720;54.324;18.558;2023-06-24T10:07:45;4.10;;;2.97;;
42912;SDS011;50720;54.324;18.558;2023-06-24T10:10:15;8.43;;;3.35;;
42912;SDS011;50720;54.324;18.558;2023-06-24T10:12:46;5.07;;;3.22;;
42912;SDS011;50720;54.324;18.558;2023-06-24T10:15:16;3.45;;;2.88;;
42912;SDS011;50720;54.324;18.558;2023-06-24T10:17:46;6.38;;;3.97;;
42912;SDS011;50720;54.324;18.558;2023-06-24T10:20:23;5.80;;;3.10;;
42912;SDS011;50720;54.324;18.558;2023-06-24T10:22:55;6.80;;;2.90;;
42912;SDS011;50720;54.324;18.558;2023-06-24T10:25:29;6.65;;;3.42;;
42912;SDS011;50720;54.324;18.558;2023-06-24T10:28:05;7.07;;;3.10;;
42912;SDS011;50720;54.324;18.558;2023-06-24T10:30:34;5.63;;;3.00;;
42912;SDS011;50720;54.324;18.558;2023-06-24T10:33:07;4.82;;;3.25;;
42912;SDS011;50720;54.324;18.558;2023-06-24T10:35:41;3.90;;;3.17;;
42912;SDS011;50720;54.324;18.558;2023-06-24T10:38:13;6.43;;;2.88;;
42912;SDS011;50720;54.324;18.558;2023-06-24T10:40:42;5.85;;;3.33;;
42912;SDS011;50720;54.324;18.558;2023-06-24T10:45:55;5.97;;;3.40;;
42912;SDS011;50720;54.324;18.558;2023-06-24T10:48:26;7.38;;;3.28;;
42912;SDS011;50720;54.324;18.558;2023-06-24T10:50:56;7.55;;;3.03;;
42912;SDS011;50720;54.324;18.558;2023-06-24T10:53:28;5.00;;;3.22;;
42912;SDS011;50720;54.324;18.558;2023-06-24T10:55:58;6.03;;;3.88;;
42912;SDS011;50720;54.324;18.558;2023-06-24T10:58:28;14.10;;;3.85;;
42912;SDS011;50720;54.324;18.558;2023-06-24T11:01:06;5.25;;;3.20;;
42912;SDS011;50720;54.324;18.558;2023-06-24T11:03:39;3.42;;;3.10;;
42912;SDS011;50720;54.324;18.558;2023-06-24T11:06:10;6.70;;;3.25;;
42912;SDS011;50720;54.324;18.558;2023-06-24T11:08:45;11.48;;;4.15;;
42912;SDS011;50720;54.324;18.558;2023-06-24T11:11:18;6.10;;;2.78;;
42912;SDS011;50720;54.324;18.558;2023-06-24T11:13:49;9.98;;;3.97;;
42912;SDS011;50720;54.324;18.558;2023-06-24T11:16:21;5.25;;;3.25;;
42912;SDS011;50720;54.324;18.558;2023-06-24T11:18:50;4.60;;;3.33;;
42912;SDS011;50720;54.324;18.558;2023-06-24T11:21:20;4.45;;;2.88;;
42912;SDS011;50720;54.324;18.558;2023-06-24T11:24:01;9.57;;;3.83;;
42912;SDS011;50720;54.324;18.558;2023-06-24T11:26:31;6.85;;;3.85;;
42912;SDS011;50720;54.324;18.558;2023-06-24T11:29:01;13.10;;;3.42;;
42912;SDS011;50720;54.324;18.558;2023-06-24T11:31:38;9.32;;;3.47;;
42912;SDS011;50720;54.324;18.558;2023-06-24T11:34:08;11.70;;;3.67;;
42912;SDS011;50720;54.324;18.558;2023-06-24T11:36:38;10.63;;;3.72;;
42912;SDS011;50720;54.324;18.558;2023-06-24T11:39:09;7.90;;;3.97;;
42912;SDS011;50720;54.324;18.558;2023-06-24T11:41:49;5.45;;;3.00;;
42912;SDS011;50720;54.324;18.558;2023-06-24T11:44:19;4.38;;;3.53;;
42912;SDS011;50720;54.324;18.558;2023-06-24T11:46:49;6.60;;;3.17;;
42912;SDS011;50720;54.324;18.558;2023-06-24T11:49:19;8.32;;;3.58;;
42912;SDS011;50720;54.324;18.558;2023-06-24T11:51:49;6.32;;;3.65;;
42912;SDS011;50720;54.324;18.558;2023-06-24T11:54:21;6.80;;;3.65;;
42912;SDS011;50720;54.324;18.558;2023-06-24T11:56:51;6.03;;;3.05;;
42912;SDS011;50720;54.324;18.558;2023-06-24T11:59:23;9.95;;;3.42;;
42912;SDS011;50720;54.324;18.558;2023-06-24T12:01:55;7.28;;;3.22;;
42912;SDS011;50720;54.324;18.558;2023-06-24T12:04:27;7.00;;;3.10;;
42912;SDS011;50720;54.324;18.558;2023-06-24T12:06:57;7.85;;;3.72;;
42912;SDS011;50720;54.324;18.558;2023-06-24T12:09:29;8.77;;;3.22;;
42912;SDS011;50720;54.324;18.558;2023-06-24T12:11:59;4.88;;;3.42;;
42912;SDS011;50720;54.324;18.558;2023-06-24T12:14:29;6.82;;;3.50;;
42912;SDS011;50720;54.324;18.558;2023-06-24T12:16:58;6.80;;;3.30;;
42912;SDS011;50720;54.324;18.558;2023-06-24T12:19:29;5.35;;;3.25;;
42912;SDS011;50720;54.324;18.558;2023-06-24T12:21:58;11.20;;;4.20;;
42912;SDS011;50720;54.324;18.558;2023-06-24T12:24:30;4.60;;;3.20;;
42912;SDS011;50720;54.324;18.558;2023-06-24T12:26:59;6.10;;;3.25;;
42912;SDS011;50720;54.324;18.558;2023-06-24T12:29:29;6.20;;;2.92;;
42912;SDS011;50720;54.324;18.558;2023-06-24T12:31:58;5.15;;;3.40;;
42912;SDS011;50720;54.324;18.558;2023-06-24T12:34:28;9.00;;;3.47;;
42912;SDS011;50720;54.324;18.558;2023-06-24T12:36:57;5.77;;;3.67;;
42912;SDS011;50720;54.324;18.558;2023-06-24T12:39:27;6.47;;;3.67;;
42912;SDS011;50720;54.324;18.558;2023-06-24T12:41:58;12.65;;;4.00;;
42912;SDS011;50720;54.324;18.558;2023-06-24T12:44:28;8.23;;;4.07;;
42912;SDS011;50720;54.324;18.558;2023-06-24T12:46:57;7.90;;;3.50;;
42912;SDS011;50720;54.324;18.558;2023-06-24T12:49:27;8.30;;;4.32;;
42912;SDS011;50720;54.324;18.558;2023-06-24T12:51:56;5.40;;;3.40;;
42912;SDS011;50720;54.324;18.558;2023-06-24T12:54:26;8.50;;;3.40;;
42912;SDS011;50720;54.324;18.558;2023-06-24T12:56:57;7.22;;;2.90;;
42912;SDS011;50720;54.324;18.558;2023-06-24T12:59:40;9.18;;;4.07;;
42912;SDS011;50720;54.324;18.558;2023-06-24T13:02:10;6.18;;;3.78;;
42912;SDS011;50720;54.324;18.558;2023-06-24T13:04:40;9.05;;;5.18;;
42912;SDS011;50720;54.324;18.558;2023-06-24T13:07:09;8.75;;;3.65;;
42912;SDS011;50720;54.324;18.558;2023-06-24T13:09:42;10.35;;;4.18;;
42912;SDS011;50720;54.324;18.558;2023-06-24T13:12:13;7.07;;;3.55;;
42912;SDS011;50720;54.324;18.558;2023-06-24T13:14:43;6.78;;;4.03;;
42912;SDS011;50720;54.324;18.558;2023-06-24T13:17:15;5.57;;;3.50;;
42912;SDS011;50720;54.324;18.558;2023-06-24T13:19:45;8.18;;;4.28;;
42912;SDS011;50720;54.324;18.558;2023-06-24T13:22:14;4.72;;;3.88;;
42912;SDS011;50720;54.324;18.558;2023-06-24T13:27:15;9.57;;;3.50;;
42912;SDS011;50720;54.324;18.558;2023-06-24T13:29:46;4.53;;;3.42;;
42912;SDS011;50720;54.324;18.558;2023-06-24T13:32:15;6.05;;;3.40;;
42912;SDS011;50720;54.324;18.558;2023-06-24T13:34:45;7.32;;;3.28;;
42912;SDS011;50720;54.324;18.558;2023-06-24T13:37:15;4.93;;;2.88;;
42912;SDS011;50720;54.324;18.558;2023-06-24T13:39:45;5.93;;;3.83;;
42912;SDS011;50720;54.324;18.558;2023-06-24T13:42:16;2.92;;;2.63;;
42912;SDS011;50720;54.324;18.558;2023-06-24T13:44:45;4.78;;;3.05;;
42912;SDS011;50720;54.324;18.558;2023-06-24T13:47:15;6.60;;;3.13;;
42912;SDS011;50720;54.324;18.558;2023-06-24T13:49:44;7.35;;;2.92;;
42912;SDS011;50720;54.324;18.558;2023-06-24T13:52:14;4.60;;;2.97;;
42912;SDS011;50720;54.324;18.558;2023-06-24T13:54:43;3.65;;;3.17;;
42912;SDS011;50720;54.324;18.558;2023-06-24T13:57:14;5.45;;;3.72;;
42912;SDS011;50720;54.324;18.558;2023-06-24T13:59:45;7.10;;;3.72;;
42912;SDS011;50720;54.324;18.558;2023-06-24T14:02:15;7.63;;;3.50;;
42912;SDS011;50720;54.324;18.558;2023-06-24T14:04:45;4.88;;;3.28;;
42912;SDS011;50720;54.324;18.558;2023-06-24T14:07:15;5.10;;;3.35;;
42912;SDS011;50720;54.324;18.558;2023-06-24T14:09:45;3.92;;;2.90;;
42912;SDS011;50720;54.324;18.558;2023-06-24T14:12:16;9.52;;;3.05;;
42912;SDS011;50720;54.324;18.558;2023-06-24T14:14:46;7.47;;;3.13;;
42912;SDS011;50720;54.324;18.558;2023-06-24T14:17:16;7.30;;;3.25;;
42912;SDS011;50720;54.324;18.558;2023-06-24T14:19:46;6.18;;;2.83;;
42912;SDS011;50720;54.324;18.558;2023-06-24T14:22:15;5.78;;;3.00;;
42912;SDS011;50720;54.324;18.558;2023-06-24T14:24:46;6.18;;;3.33;;
42912;SDS011;50720;54.324;18.558;2023-06-24T14:27:16;5.80;;;3.10;;
42912;SDS011;50720;54.324;18.558;2023-06-24T14:29:46;4.85;;;3.47;;
42912;SDS011;50720;54.324;18.558;2023-06-24T14:32:15;3.58;;;2.90;;
42912;SDS011;50720;54.324;18.558;2023-06-24T14:34:45;5.50;;;3.05;;
42912;SDS011;50720;54.324;18.558;2023-06-24T14:37:15;3.55;;;2.72;;
42912;SDS011;50720;54.324;18.558;2023-06-24T14:39:45;4.07;;;3.58;;
42912;SDS011;50720;54.324;18.558;2023-06-24T14:42:14;4.35;;;3.10;;
42912;SDS011;50720;54.324;18.558;2023-06-24T14:44:46;4.53;;;2.85;;
42912;SDS011;50720;54.324;18.558;2023-06-24T14:47:17;3.80;;;3.28;;
42912;SDS011;50720;54.324;18.558;2023-06-24T14:49:47;6.90;;;2.92;;
42912;SDS011;50720;54.324;18.558;2023-06-24T14:52:17;4.97;;;2.72;;
42912;SDS011;50720;54.324;18.558;2023-06-24T14:54:47;3.33;;;2.83;;
42912;SDS011;50720;54.324;18.558;2023-06-24T14:57:18;3.13;;;2.55;;
42912;SDS011;50720;54.324;18.558;2023-06-24T14:59:51;4.40;;;2.28;;
42912;SDS011;50720;54.324;18.558;2023-06-24T15:02:21;5.60;;;3.00;;
42912;SDS011;50720;54.324;18.558;2023-06-24T15:04:53;2.92;;;2.65;;
42912;SDS011;50720;54.324;18.558;2023-06-24T15:07:22;3.10;;;2.30;;
42912;SDS011;50720;54.324;18.558;2023-06-24T15:09:53;5.57;;;2.92;;
42912;SDS011;50720;54.324;18.558;2023-06-24T15:12:24;3.08;;;2.55;;
42912;SDS011;50720;54.324;18.558;2023-06-24T15:14:54;6.18;;;3.65;;